createdAt,value
2022-11-21T00:01:23.811Z,95831.66
2022-11-21T00:02:58.582Z,95831.25
2022-11-21T00:04:31.155Z,95839.97
2022-11-21T00:06:02.980Z,95826.41
2022-11-21T00:07:34.700Z,95840.41
2022-11-21T00:09:06.367Z,95823.44
2022-11-21T00:10:38.625Z,95820.03
2022-11-21T00:12:10.261Z,95821.91
2022-11-21T00:13:43.390Z,95822.56
2022-11-21T00:15:15.078Z,95822.09
2022-11-21T00:16:46.743Z,95819.25
2022-11-21T00:18:18.600Z,95827.63
2022-11-21T00:19:50.297Z,95827.63
2022-11-21T00:21:21.921Z,95814.88
2022-11-21T00:22:53.528Z,95810.47
2022-11-21T00:24:25.338Z,95809.81
2022-11-21T00:25:57.162Z,95826.13
2022-11-21T00:27:28.834Z,95815.88
2022-11-21T00:29:01.825Z,95808.72
2022-11-21T00:30:33.483Z,95805.88
2022-11-21T00:32:05.317Z,95813.03
2022-11-21T00:33:37.227Z,95803.09
2022-11-21T00:35:09.251Z,95805.09
2022-11-21T00:36:40.842Z,95800.13
2022-11-21T00:38:12.433Z,95806.97
2022-11-21T00:39:44.049Z,95809.63
2022-11-21T00:41:15.711Z,95811.03
2022-11-21T00:42:47.317Z,95814.78
2022-11-21T00:44:20.297Z,95821.63
2022-11-21T00:45:51.932Z,95822.41
2022-11-21T00:47:23.571Z,95820.06
2022-11-21T00:48:55.203Z,95816.00
2022-11-21T00:50:26.998Z,95816.34
2022-11-21T00:51:58.656Z,95815.22
2022-11-21T00:53:30.379Z,95812.25
2022-11-21T00:55:02.361Z,95811.16
2022-11-21T00:56:33.972Z,95818.97
2022-11-21T00:58:05.592Z,95808.72
2022-11-21T00:59:38.985Z,95808.72
2022-11-21T01:01:11.741Z,95804.53
2022-11-21T01:02:43.429Z,95790.84
2022-11-21T01:04:15.102Z,95791.63
2022-11-21T01:05:46.677Z,95790.22
2022-11-21T01:07:18.383Z,95791.63
2022-11-21T01:08:50.062Z,95792.84
2022-11-21T01:10:21.758Z,95788.44
2022-11-21T01:11:53.408Z,95779.75
2022-11-21T01:13:25.084Z,95790.66
2022-11-21T01:14:58.146Z,95782.28
2022-11-21T01:16:30.068Z,95804.19
2022-11-21T01:18:01.717Z,95803.88
2022-11-21T01:19:33.633Z,95808.06
2022-11-21T01:21:06.807Z,95801.69
2022-11-21T01:22:38.439Z,95796.53
2022-11-21T01:24:10.916Z,95798.84
2022-11-21T01:25:42.561Z,95783.75
2022-11-21T01:27:14.174Z,95783.63
2022-11-21T01:28:45.835Z,95785.50
2022-11-21T01:30:18.932Z,95785.81
2022-11-21T01:31:50.559Z,95776.78
2022-11-21T01:33:22.187Z,95774.78
2022-11-21T01:34:53.827Z,95767.94
2022-11-21T01:36:26.505Z,95761.88
2022-11-21T01:37:58.103Z,95757.03
2022-11-21T01:39:29.733Z,95760.00
2022-11-21T01:41:01.432Z,95761.75
2022-11-21T01:42:44.739Z,95762.31
2022-11-21T01:44:19.136Z,95753.28
2022-11-21T01:45:56.121Z,95737.41
2022-11-21T01:47:27.757Z,95736.03
2022-11-21T01:49:00.879Z,95736.91
2022-11-21T01:50:32.495Z,95727.88
2022-11-21T01:52:05.681Z,95721.38
2022-11-21T01:53:37.295Z,95719.50
2022-11-21T01:55:09.821Z,95702.97
2022-11-21T01:56:42.892Z,95706.38
2022-11-21T01:58:14.505Z,95689.28
2022-11-21T01:59:48.304Z,95691.28
2022-11-21T02:01:21.387Z,95680.38
2022-11-21T02:02:53.941Z,95681.34
2022-11-21T02:04:26.699Z,95675.75
2022-11-21T02:05:58.593Z,95684.78
2022-11-21T02:07:31.414Z,95688.97
2022-11-21T02:09:03.155Z,95690.19
2022-11-21T02:10:34.946Z,95684.78
2022-11-21T02:12:08.365Z,95679.16
2022-11-21T02:13:39.994Z,95680.38
2022-11-21T02:15:11.691Z,95671.31
2022-11-21T02:16:44.674Z,95671.00
2022-11-21T02:18:16.305Z,95677.50
2022-11-21T02:19:50.522Z,95665.81
2022-11-21T02:21:26.042Z,95662.84
2022-11-21T02:23:01.440Z,95654.91
2022-11-21T02:24:35.546Z,95664.38
2022-11-21T02:26:08.608Z,95665.94
2022-11-21T02:27:40.209Z,95670.13
2022-11-21T02:29:11.838Z,95674.75
2022-11-21T02:30:43.545Z,95686.53
2022-11-21T02:32:21.292Z,95684.78
2022-11-21T02:33:52.929Z,95672.31
2022-11-21T02:35:24.579Z,95664.06
2022-11-21T02:36:56.199Z,95664.72
2022-11-21T02:38:29.216Z,95662.06
2022-11-21T02:40:01.762Z,95657.53
2022-11-21T02:41:35.330Z,95657.69
2022-11-21T02:43:09.848Z,95658.44
2022-11-21T02:44:43.947Z,95656.78
2022-11-21T02:46:15.559Z,95646.28
2022-11-21T02:47:47.235Z,95657.97
2022-11-21T02:49:37.363Z,95647.50
2022-11-21T02:51:08.975Z,95641.00
2022-11-21T02:52:40.640Z,95642.13
2022-11-21T02:54:12.261Z,95638.25
2022-11-21T02:55:44.117Z,95632.19
2022-11-21T02:57:17.098Z,95635.59
2022-11-21T02:58:48.759Z,95622.38
2022-11-21T03:00:20.766Z,95618.97
2022-11-21T03:01:52.347Z,95613.66
2022-11-21T03:03:24.005Z,95613.22
2022-11-21T03:04:55.600Z,95618.53
2022-11-21T03:06:27.207Z,95620.06
2022-11-21T03:07:58.843Z,95628.44
2022-11-21T03:09:30.473Z,95622.03
2022-11-21T03:11:02.072Z,95613.78
2022-11-21T03:12:37.173Z,95616.44
2022-11-21T03:14:08.816Z,95617.53
2022-11-21T03:15:40.435Z,95613.56
2022-11-21T03:17:12.049Z,95618.06
2022-11-21T03:18:43.689Z,95612.00
2022-11-21T03:20:15.660Z,95619.19
2022-11-21T03:21:47.288Z,95614.31
2022-11-21T03:23:18.931Z,95611.25
2022-11-21T03:24:50.572Z,95607.50
2022-11-21T03:26:22.187Z,95605.63
2022-11-21T03:27:55.183Z,95600.66
2022-11-21T03:29:26.810Z,95602.41
2022-11-21T03:30:58.418Z,95600.22
2022-11-21T03:32:30.139Z,95586.75
2022-11-21T03:34:02.013Z,95593.81
2022-11-21T03:35:33.609Z,95596.03
2022-11-21T03:37:05.223Z,95581.81
2022-11-21T03:38:36.823Z,95587.19
2022-11-21T03:40:09.611Z,95585.09
2022-11-21T03:41:41.269Z,95586.22
2022-11-21T03:43:14.345Z,95577.50
2022-11-21T03:44:45.980Z,95575.53
2022-11-21T03:46:17.605Z,95575.53
2022-11-21T03:47:49.225Z,95577.84
2022-11-21T03:49:20.876Z,95573.53
2022-11-21T03:50:52.569Z,95581.81
2022-11-21T03:52:24.248Z,95572.75
2022-11-21T03:53:55.869Z,95571.88
2022-11-21T03:55:27.534Z,95575.72
2022-11-21T03:56:59.191Z,95576.06
2022-11-21T03:58:32.162Z,95579.81
2022-11-21T04:00:04.421Z,95567.34
2022-11-21T04:01:37.068Z,95569.56
2022-11-21T04:03:08.840Z,95580.59
2022-11-21T04:04:40.472Z,95577.94
2022-11-21T04:06:12.993Z,95578.94
2022-11-21T04:07:45.441Z,95573.22
2022-11-21T04:09:17.095Z,95562.53
2022-11-21T04:10:49.052Z,95569.25
2022-11-21T04:12:20.705Z,95566.94
2022-11-21T04:13:53.709Z,95560.97
2022-11-21T04:15:25.353Z,95580.59
2022-11-21T04:16:56.965Z,95567.59
2022-11-21T04:18:28.568Z,95573.78
2022-11-21T04:20:00.238Z,95569.16
2022-11-21T04:21:31.869Z,95587.00
2022-11-21T04:23:03.577Z,95565.50
2022-11-21T04:24:35.203Z,95565.16
2022-11-21T04:26:06.810Z,95553.38
2022-11-21T04:27:38.449Z,95560.53
2022-11-21T04:29:11.459Z,95574.53
2022-11-21T04:30:43.063Z,95571.66
2022-11-21T04:32:14.701Z,95576.97
2022-11-21T04:33:46.349Z,95571.22
2022-11-21T04:35:18.050Z,95570.03
2022-11-21T04:36:49.741Z,95564.06
2022-11-21T04:38:21.408Z,95565.59
2022-11-21T04:39:53.051Z,95566.28
2022-11-21T04:41:24.669Z,95572.44
2022-11-21T04:42:56.266Z,95566.28
2022-11-21T04:44:29.464Z,95576.53
2022-11-21T04:46:01.352Z,95574.66
2022-11-21T04:47:32.991Z,95576.41
2022-11-21T04:49:04.659Z,95577.50
2022-11-21T04:50:36.266Z,95586.22
2022-11-21T04:52:07.869Z,95583.56
2022-11-21T04:53:42.914Z,95578.03
2022-11-21T04:55:15.068Z,95579.59
2022-11-21T04:56:46.687Z,95588.63
2022-11-21T04:58:18.332Z,95577.84
2022-11-21T04:59:51.317Z,95583.22
2022-11-21T05:01:22.978Z,95589.97
2022-11-21T05:02:54.736Z,95594.50
2022-11-21T05:04:26.644Z,95588.84
2022-11-21T05:05:58.462Z,95580.59
2022-11-21T05:07:30.183Z,95584.78
2022-11-21T05:09:01.905Z,95580.25
2022-11-21T05:10:53.480Z,95596.78
2022-11-21T05:12:43.885Z,95583.91
2022-11-21T05:14:15.919Z,95575.28
2022-11-21T05:15:51.631Z,95578.72
2022-11-21T05:17:23.379Z,95572.66
2022-11-21T05:18:54.977Z,95578.03
2022-11-21T05:20:26.643Z,95575.72
2022-11-21T05:21:58.342Z,95578.72
2022-11-21T05:23:29.944Z,95573.41
2022-11-21T05:25:01.615Z,95571.44
2022-11-21T05:26:33.262Z,95578.72
2022-11-21T05:28:05.277Z,95579.81
2022-11-21T05:29:36.990Z,95580.25
2022-11-21T05:31:09.944Z,95590.06
2022-11-21T05:32:41.584Z,95590.50
2022-11-21T05:34:13.208Z,95587.97
2022-11-21T05:35:44.874Z,95590.28
2022-11-21T05:37:16.554Z,95582.91
2022-11-21T05:38:48.197Z,95586.44
2022-11-21T05:40:19.830Z,95588.19
2022-11-21T05:41:51.500Z,95589.75
2022-11-21T05:43:41.897Z,95588.31
2022-11-21T05:45:13.534Z,95593.06
2022-11-21T05:46:46.561Z,95583.56
2022-11-21T05:48:18.338Z,95608.47
2022-11-21T05:49:49.935Z,95597.34
2022-11-21T05:51:21.785Z,95603.53
2022-11-21T05:52:53.403Z,95608.38
2022-11-21T05:54:25.057Z,95614.44
2022-11-21T05:55:56.683Z,95615.53
2022-11-21T05:57:28.339Z,95604.97
2022-11-21T05:59:00.057Z,95610.91
2022-11-21T06:00:32.734Z,95621.84
2022-11-21T06:02:24.537Z,95625.59
2022-11-21T06:03:56.141Z,95623.72
2022-11-21T06:05:27.729Z,95630.09
2022-11-21T06:06:59.999Z,95630.97
2022-11-21T06:08:32.598Z,95635.06
2022-11-21T06:10:05.066Z,95628.22
2022-11-21T06:11:36.831Z,95631.09
2022-11-21T06:13:22.119Z,95636.38
2022-11-21T06:14:53.965Z,95629.66
2022-11-21T06:16:25.591Z,95624.69
2022-11-21T06:17:59.882Z,95623.50
2022-11-21T06:19:31.551Z,95617.44
2022-11-21T06:21:03.816Z,95623.16
2022-11-21T06:22:35.463Z,95613.69
2022-11-21T06:24:08.248Z,95612.47
2022-11-21T06:25:39.922Z,95617.88
2022-11-21T06:27:11.579Z,95618.97
2022-11-21T06:28:43.577Z,95620.94
2022-11-21T06:30:21.816Z,95623.94
2022-11-21T06:31:55.956Z,95619.41
2022-11-21T06:33:28.932Z,95620.19
2022-11-21T06:35:00.637Z,95614.44
2022-11-21T06:36:32.278Z,95611.47
2022-11-21T06:38:04.183Z,95613.69
2022-11-21T06:39:35.806Z,95600.00
2022-11-21T06:41:08.055Z,95615.88
2022-11-21T06:42:39.659Z,95615.56
2022-11-21T06:44:11.249Z,95620.84
2022-11-21T06:45:42.859Z,95617.53
2022-11-21T06:47:14.513Z,95616.31
2022-11-21T06:48:47.504Z,95618.41
2022-11-21T06:50:19.191Z,95610.47
2022-11-21T06:51:50.893Z,95621.94
2022-11-21T06:53:22.574Z,95617.84
2022-11-21T06:54:54.243Z,95616.31
2022-11-21T06:56:26.672Z,95625.34
2022-11-21T06:57:59.016Z,95617.41
2022-11-21T06:59:30.783Z,95629.88
2022-11-21T07:01:04.253Z,95622.03
2022-11-21T07:02:35.951Z,95625.13
2022-11-21T07:04:09.061Z,95625.91
2022-11-21T07:05:40.900Z,95625.56
2022-11-21T07:07:12.639Z,95627.34
2022-11-21T07:08:44.464Z,95620.06
2022-11-21T07:10:16.256Z,95628.78
2022-11-21T07:11:48.021Z,95618.97
2022-11-21T07:13:22.321Z,95631.53
2022-11-21T07:14:54.023Z,95629.66
2022-11-21T07:16:26.482Z,95630.00
2022-11-21T07:17:58.511Z,95630.66
2022-11-21T07:19:31.670Z,95627.56
2022-11-21T07:21:04.382Z,95633.53
2022-11-21T07:22:36.074Z,95629.00
2022-11-21T07:24:08.018Z,95636.94
2022-11-21T07:25:39.824Z,95629.78
2022-11-21T07:27:11.511Z,95634.28
2022-11-21T07:28:43.278Z,95640.25
2022-11-21T07:30:15.186Z,95636.16
2022-11-21T07:31:46.847Z,95632.31
2022-11-21T07:33:18.504Z,95625.81
2022-11-21T07:34:51.608Z,95635.28
2022-11-21T07:36:23.226Z,95631.75
2022-11-21T07:37:54.837Z,95634.84
2022-11-21T07:39:26.813Z,95635.63
2022-11-21T07:40:58.921Z,95636.72
2022-11-21T07:42:32.235Z,95623.50
2022-11-21T07:44:03.981Z,95632.19
2022-11-21T07:45:35.613Z,95630.00
2022-11-21T07:47:07.251Z,95632.63
2022-11-21T07:48:38.957Z,95632.97
2022-11-21T07:50:12.180Z,95628.88
2022-11-21T07:51:43.803Z,95624.69
2022-11-21T07:53:15.434Z,95616.09
2022-11-21T07:54:47.097Z,95622.06
2022-11-21T07:56:19.104Z,95628.22
2022-11-21T07:57:57.757Z,95617.66
2022-11-21T07:59:29.843Z,95615.22
2022-11-21T08:01:03.469Z,95619.75
2022-11-21T08:02:35.106Z,95620.94
2022-11-21T08:04:06.728Z,95617.22
2022-11-21T08:05:40.499Z,95619.19
2022-11-21T08:07:12.194Z,95621.59
2022-11-21T08:08:44.786Z,95609.59
2022-11-21T08:10:16.981Z,95607.94
2022-11-21T08:11:48.648Z,95605.28
2022-11-21T08:13:20.256Z,95612.13
2022-11-21T08:14:51.917Z,95613.47
2022-11-21T08:16:24.438Z,95608.81
2022-11-21T08:17:56.034Z,95611.38
2022-11-21T08:19:27.854Z,95616.22
2022-11-21T08:21:02.537Z,95614.75
2022-11-21T08:22:38.517Z,95601.88
2022-11-21T08:24:14.538Z,95598.56
2022-11-21T08:25:46.168Z,95603.50
2022-11-21T08:27:20.685Z,95600.00
2022-11-21T08:28:56.961Z,95594.91
2022-11-21T08:30:31.465Z,95588.00
2022-11-21T08:32:03.166Z,95581.94
2022-11-21T08:33:35.005Z,95576.31
2022-11-21T08:35:07.576Z,95585.47
2022-11-21T08:36:40.706Z,95589.22
2022-11-21T08:38:12.378Z,95588.97
2022-11-21T08:39:44.114Z,95586.66
2022-11-21T08:41:34.191Z,95589.31
2022-11-21T08:43:07.346Z,95580.59
2022-11-21T08:44:53.319Z,95582.81
2022-11-21T08:46:27.868Z,95583.69
2022-11-21T08:47:59.706Z,95584.03
2022-11-21T08:49:31.518Z,95574.53
2022-11-21T08:51:03.180Z,95590.53
2022-11-21T08:52:36.382Z,95576.19
2022-11-21T08:54:09.564Z,95585.34
2022-11-21T08:55:41.249Z,95578.59
2022-11-21T08:57:12.933Z,95581.28
2022-11-21T08:58:44.596Z,95574.78
2022-11-21T09:00:16.900Z,95572.22
2022-11-21T09:01:48.635Z,95567.38
2022-11-21T09:03:23.601Z,95560.31
2022-11-21T09:04:57.187Z,95563.50
2022-11-21T09:06:28.843Z,95558.66
2022-11-21T09:08:01.972Z,95551.47
2022-11-21T09:09:33.968Z,95554.47
2022-11-21T09:11:05.722Z,95546.84
2022-11-21T09:12:37.424Z,95554.03
2022-11-21T09:14:28.001Z,95549.16
2022-11-21T09:16:20.704Z,95544.41
2022-11-21T09:18:04.890Z,95550.81
2022-11-21T09:19:37.826Z,95544.84
2022-11-21T09:21:09.508Z,95544.19
2022-11-21T09:22:41.336Z,95544.31
2022-11-21T09:24:14.729Z,95546.72
2022-11-21T09:25:47.019Z,95539.22
2022-11-21T09:27:18.787Z,95541.09
2022-11-21T09:28:50.462Z,95540.31
2022-11-21T09:30:22.196Z,95543.06
2022-11-21T09:31:56.249Z,95542.63
2022-11-21T09:33:28.066Z,95544.72
2022-11-21T09:35:01.719Z,95549.44
2022-11-21T09:36:33.364Z,95552.84
2022-11-21T09:38:05.206Z,95550.75
2022-11-21T09:39:38.315Z,95553.94
2022-11-21T09:41:32.464Z,95560.44
2022-11-21T09:43:10.643Z,95558.91
2022-11-21T09:44:50.045Z,95561.31
2022-11-21T09:46:23.466Z,95562.50
2022-11-21T09:47:57.757Z,95558.44
2022-11-21T09:49:29.697Z,95555.53
2022-11-21T09:51:03.938Z,95549.56
2022-11-21T09:52:38.280Z,95547.31
2022-11-21T09:54:13.826Z,95543.78
2022-11-21T09:55:48.574Z,95541.38
2022-11-21T09:57:21.748Z,95538.72
2022-11-21T09:59:03.278Z,95534.53
2022-11-21T10:00:34.993Z,95532.22
2022-11-21T10:02:11.264Z,95524.94
2022-11-21T10:03:43.784Z,95516.31
2022-11-21T10:05:15.778Z,95521.81
2022-11-21T10:07:01.510Z,95514.19
2022-11-21T10:08:35.867Z,95508.72
2022-11-21T10:10:29.163Z,95511.38
2022-11-21T10:12:24.699Z,95511.97
2022-11-21T10:14:05.873Z,95497.66
2022-11-21T10:15:44.864Z,95488.53
2022-11-21T10:17:21.113Z,95483.50
2022-11-21T10:19:12.281Z,95486.25
2022-11-21T10:20:53.344Z,95473.00
2022-11-21T10:22:49.352Z,95454.09
2022-11-21T10:24:33.389Z,95451.19
2022-11-21T10:26:14.127Z,95450.41
2022-11-21T10:27:50.206Z,95447.44
2022-11-21T10:29:23.803Z,95449.06
2022-11-21T10:30:55.755Z,95446.34
2022-11-21T10:32:29.711Z,95449.50
2022-11-21T10:34:01.364Z,95444.28
2022-11-21T10:35:36.564Z,95446.41
2022-11-21T10:37:13.169Z,95438.25
2022-11-21T10:38:44.842Z,95445.69
2022-11-21T10:40:23.885Z,95437.19
2022-11-21T10:41:58.264Z,95432.25
2022-11-21T10:43:53.411Z,95434.63
2022-11-21T10:45:25.036Z,95418.69
2022-11-21T10:46:56.890Z,95421.28
2022-11-21T10:48:28.563Z,95422.19
2022-11-21T10:50:04.144Z,95412.88
2022-11-21T10:51:39.527Z,95407.97
2022-11-21T10:53:34.283Z,95402.75
2022-11-21T10:55:08.931Z,95402.16
2022-11-21T10:56:40.544Z,95395.66
2022-11-21T10:58:17.306Z,95385.69
2022-11-21T10:59:58.797Z,95378.28
2022-11-21T11:01:31.633Z,95370.19
2022-11-21T11:03:07.486Z,95371.78
2022-11-21T11:04:47.420Z,95369.03
2022-11-21T11:06:28.133Z,95367.03
2022-11-21T11:08:01.418Z,95363.97
2022-11-21T11:09:33.863Z,95367.09
2022-11-21T11:11:06.407Z,95354.88
2022-11-21T11:12:57.033Z,95347.78
2022-11-21T11:14:31.305Z,95340.88
2022-11-21T11:16:17.582Z,95339.03
2022-11-21T11:17:51.218Z,95336.31
2022-11-21T11:19:34.027Z,95341.19
2022-11-21T11:21:18.357Z,95333.72
2022-11-21T11:22:50.230Z,95332.16
2022-11-21T11:24:25.907Z,95324.53
2022-11-21T11:25:58.206Z,95311.00
2022-11-21T11:27:29.956Z,95311.47
2022-11-21T11:29:14.361Z,95316.13
2022-11-21T11:30:49.414Z,95304.63
2022-11-21T11:32:22.684Z,95302.25
2022-11-21T11:33:54.789Z,95303.44
2022-11-21T11:35:26.423Z,95295.13
2022-11-21T11:37:06.792Z,95300.44
2022-11-21T11:38:38.664Z,95287.16
2022-11-21T11:40:17.497Z,95284.34
2022-11-21T11:42:19.532Z,95290.50
2022-11-21T11:44:13.921Z,95278.78
2022-11-21T11:46:25.549Z,95275.28
2022-11-21T11:47:59.715Z,95264.78
2022-11-21T11:49:52.699Z,95266.31
2022-11-21T11:51:25.150Z,95258.94
2022-11-21T11:53:00.770Z,95255.41
2022-11-21T11:54:34.299Z,95264.41
2022-11-21T11:56:08.272Z,95257.56
2022-11-21T11:57:39.981Z,95253.38
2022-11-21T11:59:14.794Z,95252.81
2022-11-21T12:00:47.667Z,95254.00
2022-11-21T12:02:21.184Z,95244.97
2022-11-21T12:03:58.279Z,95239.75
2022-11-21T12:05:30.650Z,95236.34
2022-11-21T12:08:05.792Z,95217.50
2022-11-21T12:08:56.352Z,95218.16
2022-11-21T12:10:30.999Z,95215.97
2022-11-21T12:12:07.768Z,95211.38
2022-11-21T12:13:39.548Z,95208.59
2022-11-21T12:15:31.066Z,95205.94
2022-11-21T12:17:03.983Z,95208.53
2022-11-21T12:18:39.307Z,95202.09
2022-11-21T12:20:18.388Z,95197.09
2022-11-21T12:21:50.004Z,95201.78
2022-11-21T12:23:23.901Z,95190.31
2022-11-21T12:24:55.716Z,95186.66
2022-11-21T12:26:43.552Z,95183.59
2022-11-21T12:28:23.186Z,95179.19
2022-11-21T12:30:09.484Z,95175.78
2022-11-21T12:31:50.279Z,95166.31
2022-11-21T12:33:22.436Z,95161.22
2022-11-21T12:35:18.286Z,95160.88
2022-11-21T12:36:51.678Z,95149.53
2022-11-21T12:38:37.583Z,95151.06
2022-11-21T12:40:21.408Z,95146.63
2022-11-21T12:42:13.009Z,95147.47
2022-11-21T12:43:47.275Z,95138.03
2022-11-21T12:45:28.699Z,95133.53
2022-11-21T12:47:06.871Z,95130.19
2022-11-21T12:49:08.728Z,95128.50
2022-11-21T12:51:04.309Z,95121.41
2022-11-21T12:52:57.175Z,95115.44
2022-11-21T12:54:49.602Z,95101.91
2022-11-21T12:56:24.068Z,95101.47
2022-11-21T12:58:03.419Z,95100.00
2022-11-21T12:59:37.512Z,95093.22
2022-11-21T13:01:21.118Z,95085.75
2022-11-21T13:03:10.156Z,95078.50
2022-11-21T13:04:41.897Z,95079.66
2022-11-21T13:06:17.776Z,95067.50
2022-11-21T13:07:49.459Z,95067.22
2022-11-21T13:09:21.382Z,95062.78
2022-11-21T13:11:16.147Z,95060.38
2022-11-21T13:12:48.716Z,95056.00
2022-11-21T13:14:24.749Z,95043.03
2022-11-21T13:15:57.754Z,95051.63
2022-11-21T13:17:37.413Z,95047.44
2022-11-21T13:19:17.310Z,95038.44
2022-11-21T13:20:49.713Z,95041.28
2022-11-21T13:22:50.859Z,95032.66
2022-11-21T13:24:57.596Z,95033.78
2022-11-21T13:26:51.127Z,95028.16
2022-11-21T13:28:23.946Z,95021.94
2022-11-21T13:30:25.715Z,95024.06
2022-11-21T13:31:57.423Z,95015.97
2022-11-21T13:33:55.842Z,95006.00
2022-11-21T13:35:57.528Z,95004.59
2022-11-21T13:38:03.583Z,95001.34
2022-11-21T13:39:36.365Z,94998.94
2022-11-21T13:41:26.592Z,94997.69
2022-11-21T13:43:39.282Z,94994.16
2022-11-21T13:45:40.898Z,94982.41
2022-11-21T13:47:29.132Z,94975.47
2022-11-21T13:49:04.967Z,94980.81
2022-11-21T13:51:09.257Z,94971.19
2022-11-21T13:52:43.501Z,94980.53
2022-11-21T13:54:37.241Z,94969.25
2022-11-21T13:56:11.924Z,94966.25
2022-11-21T13:57:52.142Z,94960.59
2022-11-21T13:59:31.929Z,94951.19
2022-11-21T14:01:09.791Z,94944.97
2022-11-21T14:02:54.377Z,94947.41
2022-11-21T14:05:05.503Z,94944.34
2022-11-21T14:06:37.638Z,94946.66
2022-11-21T14:08:18.185Z,94944.28
2022-11-21T14:09:51.642Z,94934.53
2022-11-21T14:11:32.106Z,94936.06
2022-11-21T14:13:03.774Z,94934.91
2022-11-21T14:14:37.370Z,94931.63
2022-11-21T14:16:17.773Z,94921.69
2022-11-21T14:17:50.092Z,94914.50
2022-11-21T14:19:21.785Z,94918.72
2022-11-21T14:20:56.826Z,94901.97
2022-11-21T14:22:35.117Z,94898.13
2022-11-21T14:24:14.410Z,94899.09
2022-11-21T14:25:49.135Z,94893.72
2022-11-21T14:27:25.541Z,94896.63
2022-11-21T14:29:18.609Z,94893.75
2022-11-21T14:30:55.018Z,94904.44
2022-11-21T14:32:27.536Z,94894.53
2022-11-21T14:33:59.239Z,94888.91
2022-11-21T14:35:30.867Z,94885.44
2022-11-21T14:37:05.097Z,94881.09
2022-11-21T14:38:41.394Z,94879.19
2022-11-21T14:40:13.750Z,94879.19
2022-11-21T14:41:48.371Z,94875.34
2022-11-21T14:43:30.550Z,94881.19
2022-11-21T14:45:07.017Z,94873.91
2022-11-21T14:46:39.427Z,94868.25
2022-11-21T14:48:12.114Z,94872.41
2022-11-21T14:49:49.394Z,94869.97
2022-11-21T14:51:21.991Z,94868.44
2022-11-21T14:52:57.113Z,94865.41
2022-11-21T14:54:31.177Z,94861.25
2022-11-21T14:56:03.751Z,94867.63
2022-11-21T14:57:39.100Z,94856.84
2022-11-21T14:59:13.771Z,94853.41
2022-11-21T15:01:03.230Z,94847.38
2022-11-21T15:02:34.814Z,94840.06
2022-11-21T15:04:07.910Z,94841.09
2022-11-21T15:06:01.277Z,94833.44
2022-11-21T15:07:35.709Z,94824.63
2022-11-21T15:11:03.364Z,94818.16
2022-11-21T15:12:44.366Z,94810.88
2022-11-21T15:14:20.158Z,94802.94
2022-11-21T15:15:52.987Z,94807.34
2022-11-21T15:17:24.620Z,94810.75
2022-11-21T15:18:56.629Z,94799.25
2022-11-21T15:20:28.400Z,94784.47
2022-11-21T15:22:01.180Z,94793.09
2022-11-21T15:23:34.520Z,94780.59
2022-11-21T15:25:07.420Z,94780.84
2022-11-21T15:26:41.141Z,94780.09
2022-11-21T15:28:15.719Z,94770.72
2022-11-21T15:29:47.500Z,94768.66
2022-11-21T15:31:19.596Z,94763.31
2022-11-21T15:33:05.038Z,94762.56
2022-11-21T15:34:37.095Z,94759.72
2022-11-21T15:36:11.979Z,94747.09
2022-11-21T15:37:48.345Z,94736.22
2022-11-21T15:39:21.634Z,94737.16
2022-11-21T15:40:57.414Z,94732.16
2022-11-21T15:42:35.177Z,94728.53
2022-11-21T15:44:23.785Z,94735.41
2022-11-21T15:46:01.269Z,94734.88
2022-11-21T15:47:32.908Z,94729.91
2022-11-21T15:49:30.999Z,94736.13
2022-11-21T15:50:59.098Z,94727.91
2022-11-21T15:52:31.208Z,94732.00
2022-11-21T15:54:03.480Z,94727.38
2022-11-21T15:55:35.397Z,94725.00
2022-11-21T15:57:08.516Z,94725.84
2022-11-21T15:58:40.196Z,94714.38
2022-11-21T16:00:14.757Z,94714.41
2022-11-21T16:01:46.975Z,94707.75
2022-11-21T16:03:18.733Z,94712.31
2022-11-21T16:04:50.509Z,94708.22
2022-11-21T16:06:22.193Z,94709.69
2022-11-21T16:07:53.984Z,94701.38
2022-11-21T16:09:25.863Z,94699.34
2022-11-21T16:10:58.052Z,94684.91
2022-11-21T16:12:29.863Z,94689.88
2022-11-21T16:14:02.443Z,94681.94
2022-11-21T16:15:36.356Z,94678.72
2022-11-21T16:17:08.240Z,94683.69
2022-11-21T16:18:39.850Z,94678.03
2022-11-21T16:20:11.694Z,94669.41
2022-11-21T16:21:43.344Z,94670.91
2022-11-21T16:23:14.997Z,94664.78
2022-11-21T16:24:46.623Z,94663.28
2022-11-21T16:26:18.622Z,94665.47
2022-11-21T16:27:50.336Z,94658.69
2022-11-21T16:29:25.083Z,94650.34
2022-11-21T16:30:58.835Z,94643.38
2022-11-21T16:32:30.538Z,94649.00
2022-11-21T16:34:05.562Z,94647.03
2022-11-21T16:35:38.446Z,94641.72
2022-11-21T16:37:13.105Z,94635.03
2022-11-21T16:38:44.750Z,94632.97
2022-11-21T16:40:19.577Z,94626.03
2022-11-21T16:41:51.371Z,94626.47
2022-11-21T16:43:23.785Z,94617.44
2022-11-21T16:44:55.521Z,94610.59
2022-11-21T16:46:28.582Z,94613.25
2022-11-21T16:48:00.200Z,94609.84
2022-11-21T16:49:32.557Z,94610.13
2022-11-21T16:51:09.393Z,94611.75
2022-11-21T16:52:41.034Z,94600.97
2022-11-21T16:54:12.724Z,94600.56
2022-11-21T16:55:44.438Z,94595.84
2022-11-21T16:57:16.118Z,94588.00
2022-11-21T16:58:47.906Z,94581.03
2022-11-21T17:00:24.330Z,94573.75
2022-11-21T17:01:57.316Z,94567.16
2022-11-21T17:03:28.923Z,94561.56
2022-11-21T17:05:00.561Z,94556.63
2022-11-21T17:06:32.257Z,94556.56
2022-11-21T17:08:04.028Z,94544.34
2022-11-21T17:09:35.668Z,94547.00
2022-11-21T17:11:13.922Z,94547.28
2022-11-21T17:12:48.638Z,94537.47
2022-11-21T17:14:20.286Z,94546.91
2022-11-21T17:15:51.935Z,94536.69
2022-11-21T17:17:24.948Z,94543.97
2022-11-21T17:18:57.346Z,94543.66
2022-11-21T17:20:29.378Z,94541.84
2022-11-21T17:22:01.170Z,94543.97
2022-11-21T17:23:32.912Z,94538.00
2022-11-21T17:25:05.344Z,94542.22
2022-11-21T17:26:37.941Z,94533.81
2022-11-21T17:28:09.554Z,94534.63
2022-11-21T17:29:43.598Z,94528.59
2022-11-21T17:31:15.815Z,94522.88
2022-11-21T17:32:50.779Z,94523.69
2022-11-21T17:34:22.664Z,94515.75
2022-11-21T17:35:54.405Z,94511.19
2022-11-21T17:37:26.074Z,94515.34
2022-11-21T17:38:57.788Z,94521.44
2022-11-21T17:40:30.404Z,94513.91
2022-11-21T17:42:02.317Z,94516.13
2022-11-21T17:43:34.216Z,94518.81
2022-11-21T17:45:07.135Z,94514.28
2022-11-21T17:46:38.818Z,94505.50
2022-11-21T17:48:11.805Z,94505.50
2022-11-21T17:49:43.423Z,94508.09
2022-11-21T17:51:15.880Z,94502.41
2022-11-21T17:52:47.533Z,94496.44
2022-11-21T17:54:19.143Z,94497.94
2022-11-21T17:55:50.770Z,94497.19
2022-11-21T17:57:22.411Z,94489.56
2022-11-21T17:58:54.211Z,94488.88
2022-11-21T18:00:28.910Z,94486.28
2022-11-21T18:02:01.944Z,94493.06
2022-11-21T18:03:35.712Z,94487.44
2022-11-21T18:05:07.420Z,94484.78
2022-11-21T18:06:39.545Z,94487.75
2022-11-21T18:08:11.189Z,94489.22
2022-11-21T18:09:42.787Z,94483.88
2022-11-21T18:11:16.046Z,94479.34
2022-11-21T18:12:47.722Z,94478.59
2022-11-21T18:14:19.404Z,94488.09
2022-11-21T18:15:51.258Z,94488.81
2022-11-21T18:17:22.936Z,94490.34
2022-11-21T18:18:56.022Z,94487.69
2022-11-21T18:20:27.706Z,94478.91
2022-11-21T18:21:59.444Z,94483.88
2022-11-21T18:23:33.669Z,94486.16
2022-11-21T18:25:06.098Z,94481.13
2022-11-21T18:26:38.235Z,94475.38
2022-11-21T18:28:10.001Z,94478.13
2022-11-21T18:29:41.689Z,94471.41
2022-11-21T18:31:14.728Z,94470.28
2022-11-21T18:32:48.404Z,94469.03
2022-11-21T18:34:21.402Z,94475.16
2022-11-21T18:35:52.987Z,94477.09